createdAt,value
2023-01-30T00:00:17.375Z,-6.18
2023-01-30T00:01:06.940Z,-6.39
2023-01-30T00:01:54.119Z,-6.32
2023-01-30T00:02:41.378Z,-6.19
2023-01-30T00:03:28.559Z,-6.17
2023-01-30T00:04:17.315Z,-6.21
2023-01-30T00:05:04.979Z,-6.34
2023-01-30T00:05:52.398Z,-6.38
2023-01-30T00:06:40.983Z,-6.43
2023-01-30T00:07:28.014Z,-6.39
2023-01-30T00:08:15.150Z,-6.37
2023-01-30T00:09:02.435Z,-6.51
2023-01-30T00:09:49.370Z,-6.62
2023-01-30T00:10:36.406Z,-6.65
2023-01-30T00:11:23.660Z,-6.48
2023-01-30T00:12:10.674Z,-6.44
2023-01-30T00:12:57.724Z,-6.41
2023-01-30T00:13:44.859Z,-6.45
2023-01-30T00:14:31.975Z,-6.37
2023-01-30T00:15:19.433Z,-6.37
2023-01-30T00:16:06.813Z,-6.31
2023-01-30T00:16:53.786Z,-6.22
2023-01-30T00:17:40.882Z,-6.24
2023-01-30T00:18:28.068Z,-6.18
2023-01-30T00:19:15.155Z,-6.27
2023-01-30T00:20:02.340Z,-6.30
2023-01-30T00:20:49.440Z,-6.39
2023-01-30T00:21:36.519Z,-6.37
2023-01-30T00:22:23.796Z,-6.47
2023-01-30T00:23:10.727Z,-6.42
2023-01-30T00:24:00.136Z,-6.43
2023-01-30T00:24:47.583Z,-6.60
2023-01-30T00:25:35.225Z,-6.56
2023-01-30T00:26:22.460Z,-6.41
2023-01-30T00:27:09.548Z,-6.40
2023-01-30T00:27:56.914Z,-6.35
2023-01-30T00:28:43.966Z,-6.36
2023-01-30T00:29:31.080Z,-6.39
2023-01-30T00:30:18.464Z,-6.38
2023-01-30T00:31:06.115Z,-6.40
2023-01-30T00:31:53.372Z,-6.43
2023-01-30T00:32:40.357Z,-6.58
2023-01-30T00:33:28.137Z,-6.55
2023-01-30T00:34:15.214Z,-6.49
2023-01-30T00:35:02.233Z,-6.46
2023-01-30T00:35:51.076Z,-6.50
2023-01-30T00:36:38.081Z,-6.54
2023-01-30T00:37:25.348Z,-6.50
2023-01-30T00:38:12.536Z,-6.43
2023-01-30T00:38:59.560Z,-6.58
2023-01-30T00:39:46.590Z,-6.65
2023-01-30T00:40:33.692Z,-6.67
2023-01-30T00:41:20.713Z,-6.55
2023-01-30T00:42:26.246Z,-6.42
2023-01-30T00:43:34.003Z,-6.45
2023-01-30T00:44:39.627Z,-6.31
2023-01-30T00:45:45.209Z,-6.27
2023-01-30T00:46:52.562Z,-6.29
2023-01-30T00:47:39.667Z,-6.17
2023-01-30T00:48:26.852Z,-6.34
2023-01-30T00:49:14.311Z,-6.41
2023-01-30T00:50:01.436Z,-6.54
2023-01-30T00:50:48.645Z,-6.55
2023-01-30T00:51:35.807Z,-6.49
2023-01-30T00:52:23.011Z,-6.47
2023-01-30T00:53:12.117Z,-6.40
2023-01-30T00:53:59.141Z,-6.44
2023-01-30T00:54:46.347Z,-6.52
2023-01-30T00:55:33.343Z,-6.48
2023-01-30T00:56:20.683Z,-6.52
2023-01-30T00:57:07.661Z,-6.50
2023-01-30T00:57:54.635Z,-6.51
2023-01-30T00:58:41.791Z,-6.49
2023-01-30T00:59:29.581Z,-6.69
2023-01-30T01:00:18.214Z,-6.68
2023-01-30T01:01:05.284Z,-6.64
2023-01-30T01:01:52.513Z,-6.57
2023-01-30T01:02:39.677Z,-6.48
2023-01-30T01:03:26.632Z,-6.38
2023-01-30T01:04:13.870Z,-6.34
2023-01-30T01:05:00.823Z,-6.35
2023-01-30T01:05:48.233Z,-6.45
2023-01-30T01:06:35.387Z,-6.50
2023-01-30T01:07:22.453Z,-6.82
2023-01-30T01:08:10.813Z,-6.80
2023-01-30T01:08:57.864Z,-6.85
2023-01-30T01:09:44.806Z,-6.87
2023-01-30T01:10:32.248Z,-6.81
2023-01-30T01:11:24.945Z,-6.71
2023-01-30T01:12:12.153Z,-6.61
2023-01-30T01:12:59.152Z,-6.63
2023-01-30T01:13:46.330Z,-6.74
2023-01-30T01:14:33.610Z,-6.95
2023-01-30T01:15:22.722Z,-6.85
2023-01-30T01:16:09.813Z,-6.70
2023-01-30T01:16:56.938Z,-6.55
2023-01-30T01:17:43.957Z,-6.54
2023-01-30T01:18:31.113Z,-6.64
2023-01-30T01:19:18.184Z,-6.87
2023-01-30T01:20:06.202Z,-7.01
2023-01-30T01:20:53.267Z,-6.91
2023-01-30T01:21:40.317Z,-6.89
2023-01-30T01:22:27.384Z,-6.87
2023-01-30T01:23:14.367Z,-6.92
2023-01-30T01:24:01.583Z,-6.91
2023-01-30T01:24:48.750Z,-6.95
2023-01-30T01:25:35.749Z,-6.89
2023-01-30T01:26:22.834Z,-7.00
2023-01-30T01:27:09.849Z,-7.00
2023-01-30T01:27:56.833Z,-6.89
2023-01-30T01:28:43.817Z,-6.89
2023-01-30T01:29:30.812Z,-6.85
2023-01-30T01:30:18.581Z,-6.87
2023-01-30T01:31:13.106Z,-7.11
2023-01-30T01:32:00.321Z,-7.05
2023-01-30T01:32:47.355Z,-7.05
2023-01-30T01:33:34.284Z,-7.01
2023-01-30T01:34:21.320Z,-6.95
2023-01-30T01:35:08.752Z,-6.88
2023-01-30T01:35:57.020Z,-6.97
2023-01-30T01:36:59.428Z,-6.91
2023-01-30T01:37:47.017Z,-6.94
2023-01-30T01:38:34.499Z,-7.00
2023-01-30T01:39:21.783Z,-6.92
2023-01-30T01:40:29.978Z,-6.84
2023-01-30T01:41:18.964Z,-6.80
2023-01-30T01:42:05.970Z,-6.72
2023-01-30T01:42:53.115Z,-6.88
2023-01-30T01:44:06.745Z,-7.00
2023-01-30T01:45:04.814Z,-7.01
2023-01-30T01:46:00.521Z,-7.00
2023-01-30T01:46:55.142Z,-7.04
2023-01-30T01:48:09.075Z,-7.28
2023-01-30T01:48:58.280Z,-7.15
2023-01-30T01:49:45.503Z,-7.24
2023-01-30T01:50:41.236Z,-7.14
2023-01-30T01:51:40.740Z,-7.28
2023-01-30T01:52:27.928Z,-7.17
2023-01-30T01:53:17.070Z,-7.06
2023-01-30T01:54:10.518Z,-7.01
2023-01-30T01:55:00.395Z,-6.95
2023-01-30T01:55:49.651Z,-6.95
2023-01-30T01:56:39.619Z,-6.90
2023-01-30T01:57:40.382Z,-6.94
2023-01-30T01:58:32.173Z,-6.94
2023-01-30T01:59:39.719Z,-6.99
2023-01-30T02:00:27.059Z,-7.13
2023-01-30T02:01:14.287Z,-7.14
2023-01-30T02:02:06.607Z,-7.16
2023-01-30T02:03:00.881Z,-7.29
2023-01-30T02:03:51.464Z,-7.36
2023-01-30T02:04:57.430Z,-7.22
2023-01-30T02:05:46.957Z,-7.23
2023-01-30T02:06:34.007Z,-7.26
2023-01-30T02:07:22.380Z,-7.33
2023-01-30T02:08:18.849Z,-7.39
2023-01-30T02:09:08.231Z,-7.28
2023-01-30T02:09:55.736Z,-7.22
2023-01-30T02:11:07.321Z,-7.27
2023-01-30T02:11:57.707Z,-7.27
2023-01-30T02:12:45.211Z,-7.33
2023-01-30T02:13:32.945Z,-7.25
2023-01-30T02:14:21.267Z,-7.23
2023-01-30T02:15:08.647Z,-7.28
2023-01-30T02:16:00.193Z,-7.17
2023-01-30T02:16:47.247Z,-7.21
2023-01-30T02:17:34.279Z,-7.19
2023-01-30T02:18:21.724Z,-7.20
2023-01-30T02:19:30.855Z,-7.31
2023-01-30T02:20:45.860Z,-7.40
2023-01-30T02:22:07.198Z,-7.35
2023-01-30T02:23:31.245Z,-7.30
2023-01-30T02:24:33.421Z,-7.37
2023-01-30T02:25:41.739Z,-7.51
2023-01-30T02:26:57.597Z,-7.47
2023-01-30T02:28:05.960Z,-7.55
2023-01-30T02:29:13.962Z,-7.64
2023-01-30T02:30:16.193Z,-7.70
2023-01-30T02:31:31.150Z,-7.58
2023-01-30T02:32:26.885Z,-7.43
2023-01-30T02:33:29.645Z,-7.58
2023-01-30T02:34:36.170Z,-7.50
2023-01-30T02:35:50.326Z,-7.53
2023-01-30T02:37:30.208Z,-7.55
2023-01-30T02:38:36.875Z,-7.55
2023-01-30T02:39:39.036Z,-7.51
2023-01-30T02:40:37.277Z,-7.54
2023-01-30T02:41:36.400Z,-7.55
2023-01-30T02:42:39.089Z,-7.58
2023-01-30T02:43:55.144Z,-7.55
2023-01-30T02:45:23.848Z,-7.48
2023-01-30T02:46:30.711Z,-7.49
2023-01-30T02:47:25.040Z,-7.46
2023-01-30T02:48:20.360Z,-7.57
2023-01-30T02:49:15.260Z,-7.68
2023-01-30T02:50:29.980Z,-7.60
2023-01-30T02:51:26.915Z,-7.65
2023-01-30T02:52:15.828Z,-7.71
2023-01-30T02:53:05.940Z,-7.65
2023-01-30T02:53:53.800Z,-7.69
2023-01-30T02:54:41.035Z,-7.67
2023-01-30T02:55:29.451Z,-7.69
2023-01-30T02:56:16.629Z,-7.57
2023-01-30T02:57:03.718Z,-7.62
2023-01-30T02:57:50.884Z,-7.60
2023-01-30T02:58:44.548Z,-7.54
2023-01-30T02:59:42.682Z,-7.61
2023-01-30T03:00:44.549Z,-7.48
2023-01-30T03:01:47.347Z,-7.53
2023-01-30T03:03:11.265Z,-7.44
2023-01-30T03:04:01.112Z,-7.52
2023-01-30T03:05:03.185Z,-7.55
2023-01-30T03:06:20.715Z,-7.50
2023-01-30T03:07:49.396Z,-7.40
2023-01-30T03:08:54.372Z,-7.53
2023-01-30T03:10:38.825Z,-7.45
2023-01-30T03:11:31.927Z,-7.49
2023-01-30T03:12:42.005Z,-7.48
2023-01-30T03:13:52.749Z,-7.54
2023-01-30T03:14:42.935Z,-7.49
2023-01-30T03:15:42.541Z,-7.55
2023-01-30T03:16:39.138Z,-7.55
2023-01-30T03:17:27.425Z,-7.48
2023-01-30T03:18:14.772Z,-7.43
2023-01-30T03:19:03.747Z,-7.44
2023-01-30T03:19:52.185Z,-7.33
2023-01-30T03:20:40.582Z,-7.30
2023-01-30T03:21:27.635Z,-7.32
2023-01-30T03:22:14.680Z,-7.37
2023-01-30T03:23:01.744Z,-7.45
2023-01-30T03:23:48.884Z,-7.46
2023-01-30T03:24:36.094Z,-7.41
2023-01-30T03:25:27.123Z,-7.36
2023-01-30T03:26:21.542Z,-7.34
2023-01-30T03:27:12.196Z,-7.32
2023-01-30T03:27:59.174Z,-7.35
2023-01-30T03:28:49.274Z,-7.30
2023-01-30T03:29:36.550Z,-7.28
2023-01-30T03:30:25.719Z,-7.32
2023-01-30T03:31:12.879Z,-7.33
2023-01-30T03:32:00.225Z,-7.33
2023-01-30T03:32:47.317Z,-7.33
2023-01-30T03:33:34.226Z,-7.28
2023-01-30T03:34:21.285Z,-7.23
2023-01-30T03:35:08.671Z,-7.29
2023-01-30T03:35:55.766Z,-7.29
2023-01-30T03:36:42.915Z,-7.15
2023-01-30T03:37:30.153Z,-7.18
2023-01-30T03:38:18.477Z,-7.19
2023-01-30T03:39:05.603Z,-7.12
2023-01-30T03:39:52.589Z,-7.07
2023-01-30T03:40:39.751Z,-7.13
2023-01-30T03:41:26.704Z,-7.01
2023-01-30T03:42:13.778Z,-6.98
2023-01-30T03:43:00.858Z,-6.94
2023-01-30T03:43:47.740Z,-6.93
2023-01-30T03:44:34.793Z,-6.95
2023-01-30T03:45:21.839Z,-6.92
2023-01-30T03:46:08.961Z,-6.87
2023-01-30T03:46:55.954Z,-6.80
2023-01-30T03:47:42.940Z,-6.78
2023-01-30T03:48:29.955Z,-6.78
2023-01-30T03:49:16.945Z,-6.82
2023-01-30T03:50:04.359Z,-6.58
2023-01-30T03:50:51.377Z,-6.50
2023-01-30T03:51:38.390Z,-6.49
2023-01-30T03:52:25.469Z,-6.43
2023-01-30T03:53:12.538Z,-6.37
2023-01-30T03:53:59.562Z,-6.37
2023-01-30T03:54:46.752Z,-6.31
2023-01-30T03:55:33.761Z,-6.29
2023-01-30T03:56:20.869Z,-6.30
2023-01-30T03:57:08.164Z,-6.40
2023-01-30T03:57:57.111Z,-6.42
2023-01-30T03:58:44.138Z,-6.39
2023-01-30T03:59:31.180Z,-6.34
2023-01-30T04:00:21.348Z,-6.35
2023-01-30T04:01:08.408Z,-6.33
2023-01-30T04:01:55.436Z,-6.22
2023-01-30T04:02:42.707Z,-6.14
2023-01-30T04:03:29.845Z,-6.10
2023-01-30T04:04:16.882Z,-6.13
2023-01-30T04:05:04.144Z,-6.10
2023-01-30T04:05:51.099Z,-6.08
2023-01-30T04:06:40.416Z,-5.94
2023-01-30T04:07:29.973Z,-5.96
2023-01-30T04:08:16.975Z,-6.02
2023-01-30T04:09:04.089Z,-5.97
2023-01-30T04:09:51.183Z,-5.92
2023-01-30T04:10:38.260Z,-5.91
2023-01-30T04:11:25.356Z,-5.85
2023-01-30T04:12:12.281Z,-5.75
2023-01-30T04:12:59.239Z,-5.65
2023-01-30T04:13:46.297Z,-5.61
2023-01-30T04:14:33.446Z,-5.64
2023-01-30T04:15:20.656Z,-5.64
2023-01-30T04:16:18.340Z,-5.55
2023-01-30T04:17:05.482Z,-5.50
2023-01-30T04:17:52.567Z,-5.48
2023-01-30T04:18:39.562Z,-5.40
2023-01-30T04:19:26.567Z,-5.31
2023-01-30T04:20:13.874Z,-5.26
2023-01-30T04:21:00.895Z,-5.19
2023-01-30T04:21:47.990Z,-5.18
2023-01-30T04:22:35.111Z,-5.15
2023-01-30T04:23:22.187Z,-5.16
2023-01-30T04:24:09.321Z,-5.10
2023-01-30T04:24:56.494Z,-5.14
2023-01-30T04:25:46.931Z,-5.08
2023-01-30T04:26:33.926Z,-5.08
2023-01-30T04:27:21.028Z,-5.05
2023-01-30T04:28:08.164Z,-5.05
2023-01-30T04:28:55.145Z,-5.01
2023-01-30T04:29:42.787Z,-4.99
2023-01-30T04:30:30.121Z,-4.94
2023-01-30T04:31:17.345Z,-4.95
2023-01-30T04:32:04.698Z,-4.93
2023-01-30T04:32:51.850Z,-4.94
2023-01-30T04:33:40.348Z,-4.94
2023-01-30T04:34:27.448Z,-4.96
2023-01-30T04:35:14.550Z,-4.94
2023-01-30T04:36:03.347Z,-4.85
2023-01-30T04:36:50.453Z,-4.89
2023-01-30T04:37:37.589Z,-4.89
2023-01-30T04:38:27.056Z,-4.89
2023-01-30T04:39:14.024Z,-4.87
2023-01-30T04:40:01.075Z,-4.82
2023-01-30T04:40:55.494Z,-4.80
2023-01-30T04:41:42.422Z,-4.83
2023-01-30T04:42:29.389Z,-4.72
2023-01-30T04:43:16.499Z,-4.62
2023-01-30T04:44:03.633Z,-4.57
2023-01-30T04:44:50.700Z,-4.55
2023-01-30T04:45:37.641Z,-4.64
2023-01-30T04:46:24.696Z,-4.64
2023-01-30T04:47:11.811Z,-4.63
2023-01-30T04:47:58.881Z,-4.62
2023-01-30T04:48:45.925Z,-4.60
2023-01-30T04:49:32.935Z,-4.63
2023-01-30T04:50:19.931Z,-4.63
2023-01-30T04:51:07.404Z,-4.61
2023-01-30T04:51:54.419Z,-4.66
2023-01-30T04:52:41.507Z,-4.67
2023-01-30T04:53:28.484Z,-4.72
2023-01-30T04:54:15.482Z,-4.69
2023-01-30T04:55:02.489Z,-4.63
2023-01-30T04:55:52.723Z,-4.63
2023-01-30T04:56:39.768Z,-4.62
2023-01-30T04:57:26.789Z,-4.55
2023-01-30T04:58:13.941Z,-4.58
2023-01-30T04:59:00.942Z,-4.55
2023-01-30T04:59:48.055Z,-4.56
2023-01-30T05:00:35.152Z,-4.54
2023-01-30T05:01:34.214Z,-4.47
2023-01-30T05:02:23.033Z,-4.51
2023-01-30T05:03:10.862Z,-4.47
2023-01-30T05:03:58.103Z,-4.54
2023-01-30T05:04:45.047Z,-4.56
2023-01-30T05:05:32.043Z,-4.60
2023-01-30T05:06:19.184Z,-4.57
2023-01-30T05:07:06.350Z,-4.53
2023-01-30T05:07:53.580Z,-4.50
2023-01-30T05:08:40.626Z,-4.50
2023-01-30T05:09:27.548Z,-4.45
2023-01-30T05:10:14.465Z,-4.46
2023-01-30T05:11:01.591Z,-4.46
2023-01-30T05:11:48.565Z,-4.42
2023-01-30T05:12:35.607Z,-4.42
2023-01-30T05:13:22.698Z,-4.51
2023-01-30T05:14:09.882Z,-4.60
2023-01-30T05:14:57.058Z,-4.58
2023-01-30T05:15:45.580Z,-4.54
2023-01-30T05:16:32.636Z,-4.46
2023-01-30T05:17:19.684Z,-4.40
2023-01-30T05:18:06.609Z,-4.36
2023-01-30T05:18:54.078Z,-4.32
2023-01-30T05:19:41.127Z,-4.42
2023-01-30T05:20:28.333Z,-4.50
2023-01-30T05:21:18.313Z,-4.50
2023-01-30T05:22:05.442Z,-4.42
2023-01-30T05:22:52.740Z,-4.43
2023-01-30T05:23:39.991Z,-4.41
2023-01-30T05:24:27.047Z,-4.40
2023-01-30T05:25:14.249Z,-4.43
2023-01-30T05:26:02.271Z,-4.41
2023-01-30T05:26:49.363Z,-4.42
2023-01-30T05:27:36.392Z,-4.40
2023-01-30T05:28:23.391Z,-4.45
2023-01-30T05:29:10.874Z,-4.44
2023-01-30T05:29:57.926Z,-4.49
2023-01-30T05:30:46.390Z,-4.49
2023-01-30T05:31:35.848Z,-4.45
2023-01-30T05:32:22.895Z,-4.49
2023-01-30T05:33:09.980Z,-4.48
2023-01-30T05:33:57.054Z,-4.47
2023-01-30T05:34:44.188Z,-4.56
2023-01-30T05:35:31.265Z,-4.54
2023-01-30T05:36:19.812Z,-4.50
2023-01-30T05:37:07.099Z,-4.48
2023-01-30T05:37:54.111Z,-4.51
2023-01-30T05:38:42.555Z,-4.52
2023-01-30T05:39:29.583Z,-4.52
2023-01-30T05:40:16.790Z,-4.49
2023-01-30T05:41:08.100Z,-4.51
2023-01-30T05:41:55.174Z,-4.52
2023-01-30T05:42:42.136Z,-4.47
2023-01-30T05:43:30.207Z,-4.51
2023-01-30T05:44:17.317Z,-4.53
2023-01-30T05:45:04.680Z,-4.54
2023-01-30T05:45:56.222Z,-4.58
2023-01-30T05:46:43.382Z,-4.55
2023-01-30T05:47:30.381Z,-4.49
2023-01-30T05:48:17.293Z,-4.54
2023-01-30T05:49:04.549Z,-4.51
2023-01-30T05:49:51.536Z,-4.48
2023-01-30T05:50:38.866Z,-4.43
2023-01-30T05:51:27.462Z,-4.52
2023-01-30T05:52:14.432Z,-4.46
2023-01-30T05:53:01.358Z,-4.49
2023-01-30T05:53:48.672Z,-4.48
2023-01-30T05:54:35.828Z,-4.49
2023-01-30T05:55:22.803Z,-4.53
2023-01-30T05:56:09.909Z,-4.53
2023-01-30T05:56:57.022Z,-4.47
2023-01-30T05:57:44.090Z,-4.45
2023-01-30T05:58:31.647Z,-4.42
2023-01-30T05:59:21.309Z,-4.43
2023-01-30T06:00:10.843Z,-4.48
2023-01-30T06:01:05.500Z,-4.55
2023-01-30T06:01:52.619Z,-4.56
2023-01-30T06:02:39.853Z,-4.53
2023-01-30T06:03:26.856Z,-4.60
2023-01-30T06:04:13.783Z,-4.52
2023-01-30T06:05:00.902Z,-4.48
2023-01-30T06:05:47.971Z,-4.48
2023-01-30T06:06:35.189Z,-4.46
2023-01-30T06:07:22.218Z,-4.44
2023-01-30T06:08:09.212Z,-4.34
2023-01-30T06:08:57.038Z,-4.31
2023-01-30T06:09:44.036Z,-4.34
2023-01-30T06:10:31.142Z,-4.27
2023-01-30T06:11:18.635Z,-4.28
2023-01-30T06:12:07.233Z,-4.24
2023-01-30T06:12:54.341Z,-4.18
2023-01-30T06:13:42.319Z,-4.18
2023-01-30T06:14:29.504Z,-4.18
2023-01-30T06:15:16.806Z,-4.12
2023-01-30T06:16:04.326Z,-4.05
2023-01-30T06:16:51.524Z,-4.01
2023-01-30T06:17:43.423Z,-4.01
2023-01-30T06:18:30.463Z,-4.11
2023-01-30T06:19:17.521Z,-4.08
2023-01-30T06:20:05.125Z,-4.05
2023-01-30T06:20:53.499Z,-4.01
2023-01-30T06:21:40.542Z,-4.00
2023-01-30T06:22:27.579Z,-3.95
2023-01-30T06:23:14.775Z,-3.80
2023-01-30T06:24:02.636Z,-3.81
2023-01-30T06:24:49.772Z,-3.81
2023-01-30T06:25:36.838Z,-3.75
2023-01-30T06:26:23.853Z,-3.78
2023-01-30T06:27:10.983Z,-3.75
2023-01-30T06:27:58.075Z,-3.82
2023-01-30T06:28:45.284Z,-3.76
2023-01-30T06:29:32.224Z,-3.77
2023-01-30T06:30:19.436Z,-3.71
2023-01-30T06:31:09.721Z,-3.70
2023-01-30T06:31:56.724Z,-3.76
2023-01-30T06:32:43.771Z,-3.81
2023-01-30T06:33:30.957Z,-3.82
2023-01-30T06:34:18.002Z,-3.80
2023-01-30T06:35:05.664Z,-3.77
2023-01-30T06:35:53.180Z,-3.71
2023-01-30T06:36:40.454Z,-3.66
2023-01-30T06:37:27.480Z,-3.65
2023-01-30T06:38:14.592Z,-3.56
2023-01-30T06:39:01.876Z,-3.55
2023-01-30T06:39:49.061Z,-3.47
2023-01-30T06:40:36.053Z,-3.59
2023-01-30T06:41:23.070Z,-3.60
2023-01-30T06:42:10.141Z,-3.58
2023-01-30T06:42:57.114Z,-3.60
2023-01-30T06:43:44.123Z,-3.53
2023-01-30T06:44:31.236Z,-3.62
2023-01-30T06:45:19.876Z,-3.60
2023-01-30T06:46:07.240Z,-3.65
2023-01-30T06:46:54.460Z,-3.66
2023-01-30T06:47:54.623Z,-3.64
2023-01-30T06:48:41.549Z,-3.53
2023-01-30T06:49:28.957Z,-3.53
2023-01-30T06:50:18.172Z,-3.47
2023-01-30T06:51:05.267Z,-3.46
2023-01-30T06:51:52.187Z,-3.42
2023-01-30T06:52:42.994Z,-3.46
2023-01-30T06:53:33.054Z,-3.35
2023-01-30T06:54:20.039Z,-3.39
2023-01-30T06:55:08.506Z,-3.26
2023-01-30T06:55:55.557Z,-3.25
2023-01-30T06:56:42.535Z,-3.23
2023-01-30T06:57:30.028Z,-3.26
2023-01-30T06:58:17.146Z,-3.17
2023-01-30T06:59:04.189Z,-3.15
2023-01-30T06:59:51.185Z,-3.22
2023-01-30T07:00:40.545Z,-3.20
2023-01-30T07:01:29.016Z,-3.14
2023-01-30T07:02:16.168Z,-3.04
2023-01-30T07:03:03.359Z,-3.08
2023-01-30T07:03:50.425Z,-3.04
2023-01-30T07:04:37.383Z,-3.06
2023-01-30T07:05:24.543Z,-2.97
2023-01-30T07:06:11.654Z,-2.92
2023-01-30T07:06:58.827Z,-2.98
2023-01-30T07:07:45.820Z,-3.07
2023-01-30T07:08:32.908Z,-2.92
2023-01-30T07:09:19.899Z,-2.84
2023-01-30T07:10:09.176Z,-2.82
2023-01-30T07:10:56.623Z,-2.71
2023-01-30T07:11:43.544Z,-2.75
2023-01-30T07:12:30.637Z,-2.66
2023-01-30T07:13:17.738Z,-2.68
2023-01-30T07:14:06.361Z,-2.55
2023-01-30T07:14:54.612Z,-2.47
2023-01-30T07:15:41.813Z,-2.37
2023-01-30T07:16:29.596Z,-2.29
2023-01-30T07:17:17.563Z,-2.36
2023-01-30T07:18:04.538Z,-2.35
2023-01-30T07:18:51.700Z,-2.34
2023-01-30T07:19:39.301Z,-2.36
2023-01-30T07:20:26.380Z,-2.33
2023-01-30T07:21:14.043Z,-2.26
2023-01-30T07:22:02.473Z,-2.31
2023-01-30T07:22:54.668Z,-2.28
2023-01-30T07:23:41.855Z,-2.18
2023-01-30T07:24:28.878Z,-2.17
2023-01-30T07:25:17.025Z,-2.13
2023-01-30T07:26:07.403Z,-2.14
2023-01-30T07:26:54.445Z,-2.07
2023-01-30T07:27:41.443Z,-2.16
2023-01-30T07:28:28.404Z,-2.07
2023-01-30T07:29:15.726Z,-2.08
2023-01-30T07:30:03.025Z,-2.16
2023-01-30T07:30:53.131Z,-2.17
2023-01-30T07:31:40.427Z,-2.14
2023-01-30T07:32:27.472Z,-2.06
2023-01-30T07:33:14.518Z,-2.16
2023-01-30T07:34:01.598Z,-2.11
2023-01-30T07:34:48.899Z,-2.10
2023-01-30T07:35:37.298Z,-1.99
2023-01-30T07:36:24.851Z,-1.98
2023-01-30T07:37:11.846Z,-1.91
2023-01-30T07:37:58.829Z,-1.89
2023-01-30T07:38:49.435Z,-1.78
2023-01-30T07:39:36.641Z,-1.95
2023-01-30T07:40:24.673Z,-1.90
2023-01-30T07:41:11.670Z,-1.78
2023-01-30T07:42:00.961Z,-1.83
2023-01-30T07:42:58.888Z,-1.97
2023-01-30T07:43:45.794Z,-1.87
2023-01-30T07:44:34.170Z,-1.86
2023-01-30T07:45:21.339Z,-1.81
2023-01-30T07:46:08.410Z,-1.73
2023-01-30T07:46:55.509Z,-1.64
2023-01-30T07:47:42.633Z,-1.69
2023-01-30T07:48:31.051Z,-1.68
2023-01-30T07:49:46.701Z,-1.70
2023-01-30T07:50:33.603Z,-1.62
2023-01-30T07:51:20.542Z,-1.76
2023-01-30T07:52:07.404Z,-1.80
2023-01-30T07:52:54.341Z,-1.85
2023-01-30T07:53:41.203Z,-1.78
2023-01-30T07:54:28.172Z,-1.69
2023-01-30T07:55:15.250Z,-1.58
2023-01-30T07:56:10.396Z,-1.52
2023-01-30T07:56:57.352Z,-1.48
2023-01-30T07:57:44.297Z,-1.46
2023-01-30T07:58:31.220Z,-1.39
2023-01-30T07:59:18.213Z,-1.45
2023-01-30T08:00:05.693Z,-1.57
2023-01-30T08:00:55.558Z,-1.46
2023-01-30T08:01:44.442Z,-1.37
2023-01-30T08:02:31.368Z,-1.33
2023-01-30T08:03:18.632Z,-1.34
2023-01-30T08:04:05.660Z,-1.31
2023-01-30T08:04:52.631Z,-1.35
2023-01-30T08:05:39.541Z,-1.27
2023-01-30T08:06:27.142Z,-1.34
2023-01-30T08:07:14.047Z,-1.32
2023-01-30T08:08:01.189Z,-1.27
2023-01-30T08:08:48.129Z,-1.46
2023-01-30T08:09:35.114Z,-1.36
2023-01-30T08:10:22.045Z,-1.41
2023-01-30T08:11:09.491Z,-1.36
2023-01-30T08:11:56.405Z,-1.37
2023-01-30T08:12:43.654Z,-1.26
2023-01-30T08:13:30.589Z,-1.25
2023-01-30T08:14:17.570Z,-1.27
2023-01-30T08:15:04.861Z,-1.26
2023-01-30T08:15:51.751Z,-1.34
2023-01-30T08:16:39.229Z,-1.51
2023-01-30T08:17:26.241Z,-1.51
2023-01-30T08:18:13.239Z,-1.55
2023-01-30T08:19:00.342Z,-1.45
2023-01-30T08:19:47.223Z,-1.42
2023-01-30T08:20:34.263Z,-1.40
2023-01-30T08:21:21.203Z,-1.41
2023-01-30T08:22:08.055Z,-1.34
2023-01-30T08:22:55.085Z,-1.22
2023-01-30T08:23:41.937Z,-1.25
2023-01-30T08:24:28.831Z,-1.39
2023-01-30T08:25:15.836Z,-1.48
2023-01-30T08:26:04.906Z,-1.42
2023-01-30T08:26:51.871Z,-1.39
2023-01-30T08:27:38.766Z,-1.22
2023-01-30T08:28:26.059Z,-1.12
2023-01-30T08:29:12.937Z,-1.17
2023-01-30T08:29:59.854Z,-1.23
2023-01-30T08:30:46.749Z,-1.25
2023-01-30T08:31:33.739Z,-1.24
2023-01-30T08:32:20.644Z,-1.22
2023-01-30T08:33:07.678Z,-1.17
2023-01-30T08:33:54.617Z,-1.32
2023-01-30T08:34:41.528Z,-1.32
2023-01-30T08:35:28.477Z,-1.17
2023-01-30T08:36:15.375Z,-1.25
2023-01-30T08:37:02.895Z,-1.10
2023-01-30T08:37:49.728Z,-1.10
2023-01-30T08:38:36.648Z,-1.14
2023-01-30T08:39:23.852Z,-0.92
2023-01-30T08:40:13.599Z,-0.83
2023-01-30T08:41:01.286Z,-0.97
2023-01-30T08:41:48.400Z,-0.92
2023-01-30T08:42:35.445Z,-0.87
2023-01-30T08:43:22.375Z,-0.94
2023-01-30T08:44:13.167Z,-0.88
2023-01-30T08:45:00.188Z,-0.79
2023-01-30T08:45:47.058Z,-0.74
2023-01-30T08:46:33.983Z,-0.80
2023-01-30T08:47:22.402Z,-0.87
2023-01-30T08:48:10.347Z,-0.91
2023-01-30T08:48:57.201Z,-0.83
2023-01-30T08:49:44.095Z,-0.79
2023-01-30T08:50:32.151Z,-0.60
2023-01-30T08:51:19.101Z,-0.49
2023-01-30T08:52:06.011Z,-0.47
2023-01-30T08:52:53.006Z,-0.37
2023-01-30T08:53:39.860Z,-0.40
2023-01-30T08:54:26.859Z,-0.37
2023-01-30T08:55:13.722Z,-0.35
2023-01-30T08:56:00.584Z,-0.24
2023-01-30T08:56:47.527Z,-0.23
2023-01-30T08:57:34.413Z,-0.11
2023-01-30T08:58:22.047Z,-0.01
2023-01-30T08:59:08.996Z,0.06
2023-01-30T08:59:55.883Z,0.12
2023-01-30T09:00:45.851Z,0.07
2023-01-30T09:01:33.996Z,0.18
2023-01-30T09:02:21.043Z,0.16
2023-01-30T09:03:08.008Z,0.29
2023-01-30T09:03:54.843Z,0.29
2023-01-30T09:04:41.783Z,0.32
2023-01-30T09:05:30.175Z,0.17
2023-01-30T09:06:17.094Z,0.18
2023-01-30T09:07:06.107Z,0.27
2023-01-30T09:07:52.951Z,0.20
2023-01-30T09:08:39.901Z,0.11
2023-01-30T09:09:26.969Z,0.07
2023-01-30T09:10:14.016Z,0.05
2023-01-30T09:11:02.409Z,0.09
2023-01-30T09:11:49.321Z,0.15
2023-01-30T09:12:38.326Z,0.22
2023-01-30T09:13:25.707Z,0.16
2023-01-30T09:14:12.602Z,0.18
2023-01-30T09:15:00.645Z,0.24
2023-01-30T09:15:47.486Z,0.23
2023-01-30T09:16:34.496Z,0.32
2023-01-30T09:17:21.912Z,0.36
2023-01-30T09:18:10.880Z,0.44
2023-01-30T09:18:57.709Z,0.38
2023-01-30T09:19:44.650Z,0.38
2023-01-30T09:20:31.573Z,0.38
2023-01-30T09:21:18.488Z,0.38
2023-01-30T09:22:05.618Z,0.46
2023-01-30T09:22:52.637Z,0.45
2023-01-30T09:23:40.005Z,0.42
2023-01-30T09:24:27.963Z,0.39
2023-01-30T09:25:14.986Z,0.33
2023-01-30T09:26:02.597Z,0.17
2023-01-30T09:26:49.537Z,0.32
2023-01-30T09:27:37.190Z,0.35
2023-01-30T09:28:24.158Z,0.38
2023-01-30T09:29:14.422Z,0.44
2023-01-30T09:30:01.337Z,0.42
2023-01-30T09:30:48.329Z,0.34
2023-01-30T09:31:35.282Z,0.28
2023-01-30T09:32:23.676Z,0.34
2023-01-30T09:33:10.997Z,0.31
2023-01-30T09:33:57.875Z,0.32
2023-01-30T09:34:44.834Z,0.30
2023-01-30T09:35:31.759Z,0.32
2023-01-30T09:36:18.640Z,0.39
2023-01-30T09:37:05.557Z,0.44
2023-01-30T09:37:53.742Z,0.43
2023-01-30T09:38:40.644Z,0.50
2023-01-30T09:39:28.365Z,0.44
2023-01-30T09:40:17.984Z,0.57
2023-01-30T09:41:36.931Z,0.48
2023-01-30T09:42:46.384Z,0.57
2023-01-30T09:43:38.916Z,0.70
2023-01-30T09:44:42.134Z,0.69
2023-01-30T09:45:29.251Z,0.74
2023-01-30T09:46:47.256Z,0.79
2023-01-30T09:47:40.799Z,0.73
2023-01-30T09:48:35.240Z,0.54
2023-01-30T09:49:33.934Z,0.56
2023-01-30T09:50:36.409Z,0.66
2023-01-30T09:52:07.694Z,0.64
2023-01-30T09:54:12.763Z,0.74
2023-01-30T09:55:10.328Z,0.90
2023-01-30T09:55:59.320Z,0.84
2023-01-30T09:56:46.637Z,0.84
2023-01-30T09:57:33.763Z,0.77
2023-01-30T09:58:25.150Z,0.96
2023-01-30T09:59:21.941Z,0.97
2023-01-30T10:00:36.188Z,0.60
2023-01-30T10:01:29.717Z,0.76
2023-01-30T10:02:30.491Z,0.88
2023-01-30T10:03:26.169Z,0.72
2023-01-30T10:04:25.585Z,0.78
2023-01-30T10:05:13.017Z,0.68
2023-01-30T10:06:06.351Z,0.71
2023-01-30T10:07:15.416Z,0.89
2023-01-30T10:08:20.683Z,1.03
2023-01-30T10:09:29.517Z,1.16
2023-01-30T10:10:35.464Z,1.18
2023-01-30T10:11:48.082Z,1.17
2023-01-30T10:13:12.605Z,1.27
2023-01-30T10:14:14.723Z,1.29
2023-01-30T10:15:15.054Z,1.28
2023-01-30T10:16:12.607Z,1.05
2023-01-30T10:17:33.192Z,1.06
2023-01-30T10:18:44.644Z,1.04
2023-01-30T10:19:57.728Z,1.10
2023-01-30T10:21:09.720Z,1.10
2023-01-30T10:22:02.990Z,1.04
2023-01-30T10:23:13.145Z,0.91
2023-01-30T10:24:20.587Z,1.08
2023-01-30T10:25:13.742Z,0.99
2023-01-30T10:26:12.047Z,1.06
2023-01-30T10:26:58.989Z,1.03
2023-01-30T10:27:56.191Z,1.17
2023-01-30T10:29:06.770Z,1.21
2023-01-30T10:29:59.576Z,1.35
2023-01-30T10:30:48.765Z,1.31
2023-01-30T10:31:48.308Z,1.23
2023-01-30T10:32:46.824Z,1.49
2023-01-30T10:33:37.982Z,1.66
2023-01-30T10:34:38.012Z,1.73
2023-01-30T10:35:30.598Z,1.77
2023-01-30T10:36:25.646Z,1.93
2023-01-30T10:37:36.669Z,1.81
2023-01-30T10:38:30.800Z,1.96
2023-01-30T10:39:26.279Z,1.93
2023-01-30T10:40:13.168Z,2.00
2023-01-30T10:41:27.187Z,1.96
2023-01-30T10:42:20.132Z,2.16
2023-01-30T10:43:37.248Z,2.29
2023-01-30T10:44:24.425Z,2.40
2023-01-30T10:45:20.685Z,2.60
2023-01-30T10:46:10.828Z,2.66
2023-01-30T10:47:13.060Z,2.72
2023-01-30T10:48:26.453Z,2.83
2023-01-30T10:49:39.532Z,2.93
2023-01-30T10:50:51.401Z,2.92
2023-01-30T10:52:01.585Z,3.00
2023-01-30T10:53:05.572Z,2.79
2023-01-30T10:53:58.032Z,2.68
2023-01-30T10:55:19.892Z,2.76